createdAt,value
2023-05-04T00:01:34.370Z,4.25
2023-05-04T00:04:05.747Z,4.05
2023-05-04T00:06:36.798Z,1.70
2023-05-04T00:09:10.036Z,2.33
2023-05-04T00:11:40.545Z,2.03
2023-05-04T00:14:11.022Z,2.22
2023-05-04T00:16:41.374Z,2.45
2023-05-04T00:19:14.181Z,3.88
2023-05-04T00:21:44.711Z,3.17
2023-05-04T00:24:15.016Z,3.60
2023-05-04T00:26:47.177Z,1.60
2023-05-04T00:29:17.493Z,2.00
2023-05-04T00:31:48.296Z,0.95
2023-05-04T00:34:18.617Z,1.17
2023-05-04T00:36:49.388Z,1.13
2023-05-04T00:39:20.749Z,3.47
2023-05-04T00:41:51.228Z,0.93
2023-05-04T00:44:22.146Z,2.10
2023-05-04T00:46:55.126Z,1.42
2023-05-04T00:49:26.424Z,1.17
2023-05-04T00:51:58.973Z,0.32
2023-05-04T00:54:32.177Z,2.60
2023-05-04T00:57:04.427Z,0.98
2023-05-04T00:59:36.533Z,1.90
2023-05-04T01:02:09.205Z,1.38
2023-05-04T01:04:41.380Z,2.38
2023-05-04T01:07:47.284Z,1.45
2023-05-04T01:10:28.610Z,1.60
2023-05-04T01:13:21.538Z,2.90
2023-05-04T01:15:53.132Z,1.67
2023-05-04T01:18:26.104Z,3.10
2023-05-04T01:20:57.114Z,1.75
2023-05-04T01:23:29.517Z,0.45
2023-05-04T01:26:11.585Z,1.45
2023-05-04T01:28:59.643Z,0.73
2023-05-04T01:31:31.945Z,1.48
2023-05-04T01:34:03.168Z,0.55
2023-05-04T01:36:35.446Z,0.75
2023-05-04T01:39:08.104Z,1.10
2023-05-04T01:41:39.385Z,1.02
2023-05-04T01:44:11.952Z,1.67
2023-05-04T01:46:42.846Z,0.85
2023-05-04T01:49:13.792Z,1.15
2023-05-04T01:51:53.429Z,0.90
2023-05-04T01:54:24.470Z,0.82
2023-05-04T01:56:55.085Z,0.10
2023-05-04T01:59:25.841Z,2.67
2023-05-04T02:01:56.521Z,2.08
2023-05-04T02:04:27.612Z,1.20
2023-05-04T02:06:58.511Z,2.03
2023-05-04T02:09:29.226Z,0.43
2023-05-04T02:12:02.102Z,0.73
2023-05-04T02:14:33.089Z,0.50
2023-05-04T02:17:13.252Z,1.55
2023-05-04T02:19:43.640Z,1.25
2023-05-04T02:22:13.943Z,0.22
2023-05-04T02:24:44.355Z,0.77
2023-05-04T02:27:14.556Z,1.75
2023-05-04T02:29:44.930Z,1.67
2023-05-04T02:32:15.975Z,0.57
2023-05-04T02:34:46.730Z,0.80
2023-05-04T02:37:18.566Z,1.00
2023-05-04T02:39:49.312Z,1.88
2023-05-04T02:42:21.452Z,0.57
2023-05-04T02:44:53.359Z,2.30
2023-05-04T02:47:23.997Z,0.82
2023-05-04T02:49:54.987Z,0.43
2023-05-04T02:52:25.734Z,0.95
2023-05-04T02:54:57.108Z,1.80
2023-05-04T02:57:28.087Z,0.75
2023-05-04T02:59:58.839Z,1.40
2023-05-04T03:02:29.543Z,0.88
2023-05-04T03:05:01.506Z,1.08
2023-05-04T03:07:32.317Z,1.00
2023-05-04T03:10:07.144Z,0.57
2023-05-04T03:12:39.790Z,0.88
2023-05-04T03:15:11.523Z,1.13
2023-05-04T03:17:41.860Z,0.20
2023-05-04T03:20:18.922Z,0.47
2023-05-04T03:22:56.493Z,0.57
2023-05-04T03:25:27.439Z,0.80
2023-05-04T03:28:00.721Z,0.35
2023-05-04T03:30:32.387Z,0.70
2023-05-04T03:33:04.646Z,2.28
2023-05-04T03:35:41.769Z,2.15
2023-05-04T03:38:14.042Z,1.13
2023-05-04T03:40:45.174Z,0.30
2023-05-04T03:43:16.877Z,0.28
2023-05-04T03:45:57.925Z,0.20
2023-05-04T03:48:31.695Z,1.20
2023-05-04T03:51:02.378Z,0.63
2023-05-04T03:53:34.220Z,0.85
2023-05-04T03:56:05.562Z,0.20
2023-05-04T03:58:36.722Z,0.95
2023-05-04T04:01:07.883Z,0.65
2023-05-04T04:03:38.866Z,0.80
2023-05-04T04:06:12.821Z,0.88
2023-05-04T04:08:43.894Z,1.38
2023-05-04T04:11:15.781Z,0.30
2023-05-04T04:13:47.334Z,0.30
2023-05-04T04:16:18.291Z,1.05
2023-05-04T04:18:49.296Z,0.65
2023-05-04T04:21:20.847Z,1.45
2023-05-04T04:23:54.728Z,1.55
2023-05-04T04:26:25.008Z,1.25
2023-05-04T04:28:55.310Z,2.05
2023-05-04T04:31:25.698Z,0.47
2023-05-04T04:33:57.264Z,3.40
2023-05-04T04:36:28.872Z,0.73
2023-05-04T04:39:00.740Z,0.60
2023-05-04T04:41:31.433Z,0.40
2023-05-04T04:44:02.236Z,0.13
2023-05-04T04:46:33.455Z,0.52
2023-05-04T04:49:04.409Z,1.55
2023-05-04T04:51:35.171Z,0.43
2023-05-04T04:54:06.097Z,0.30
2023-05-04T04:56:38.250Z,0.57
2023-05-04T04:59:13.036Z,0.52
2023-05-04T05:01:47.036Z,1.27
2023-05-04T05:04:17.976Z,1.27
2023-05-04T05:06:49.943Z,1.38
2023-05-04T05:09:20.765Z,1.00
2023-05-04T05:11:51.700Z,1.05
2023-05-04T05:14:22.383Z,1.38
2023-05-04T05:16:53.061Z,0.13
2023-05-04T05:19:23.706Z,0.50
2023-05-04T05:21:55.089Z,0.70
2023-05-04T05:24:26.771Z,0.68
2023-05-04T05:26:57.500Z,1.23
2023-05-04T05:29:28.806Z,1.48
2023-05-04T05:31:59.453Z,1.23
2023-05-04T05:34:30.298Z,1.10
2023-05-04T05:37:00.864Z,0.43
2023-05-04T05:39:34.388Z,0.55
2023-05-04T05:42:05.672Z,0.63
2023-05-04T05:44:41.982Z,1.25
2023-05-04T05:47:12.877Z,0.40
2023-05-04T05:49:46.270Z,0.28
2023-05-04T05:52:17.448Z,0.57
2023-05-04T05:54:48.136Z,1.10
2023-05-04T05:57:19.021Z,2.38
2023-05-04T05:59:50.194Z,1.05
2023-05-04T06:02:20.919Z,0.57
2023-05-04T06:04:51.747Z,1.35
2023-05-04T06:07:23.824Z,0.30
2023-05-04T06:09:55.340Z,0.40
2023-05-04T06:12:27.763Z,0.73
2023-05-04T06:14:58.715Z,2.15
2023-05-04T06:17:29.359Z,0.55
2023-05-04T06:20:00.104Z,1.20
2023-05-04T06:22:30.864Z,1.63
2023-05-04T06:25:04.539Z,1.73
2023-05-04T06:27:38.201Z,1.77
2023-05-04T06:30:09.940Z,0.73
2023-05-04T06:32:41.883Z,0.25
2023-05-04T06:35:12.773Z,0.20
2023-05-04T06:37:43.822Z,2.13
2023-05-04T06:40:15.038Z,1.33
2023-05-04T06:42:46.226Z,6.13
2023-05-04T06:45:16.983Z,2.15
2023-05-04T06:47:48.341Z,2.15
2023-05-04T06:50:18.866Z,0.60
2023-05-04T06:52:50.839Z,1.58
2023-05-04T06:55:22.020Z,0.52
2023-05-04T06:57:54.881Z,1.65
2023-05-04T07:00:26.942Z,0.82
2023-05-04T07:02:58.530Z,1.13
2023-05-04T07:05:29.696Z,2.67
2023-05-04T07:08:01.973Z,1.30
2023-05-04T07:10:32.988Z,1.92
2023-05-04T07:13:04.153Z,2.05
2023-05-04T07:15:36.223Z,1.88
2023-05-04T07:18:06.924Z,2.10
2023-05-04T07:20:37.617Z,0.73
2023-05-04T07:23:08.302Z,1.80
2023-05-04T07:25:39.289Z,1.50
2023-05-04T07:28:09.955Z,2.53
2023-05-04T07:30:40.938Z,2.85
2023-05-04T07:33:11.767Z,1.58
2023-05-04T07:35:42.766Z,1.23
2023-05-04T07:38:22.976Z,2.92
2023-05-04T07:40:53.970Z,2.60
2023-05-04T07:43:25.242Z,0.95
2023-05-04T07:46:01.624Z,4.13
2023-05-04T07:48:34.686Z,6.60
2023-05-04T07:51:05.340Z,3.08
2023-05-04T07:53:35.996Z,1.35
2023-05-04T07:56:16.448Z,2.65
2023-05-04T07:58:47.115Z,1.73
2023-05-04T08:01:17.835Z,3.05
2023-05-04T08:03:51.661Z,1.65
2023-05-04T08:06:24.009Z,1.95
2023-05-04T08:08:56.030Z,2.95
2023-05-04T08:11:27.857Z,3.22
2023-05-04T08:13:59.744Z,5.07
2023-05-04T08:16:31.640Z,2.08
2023-05-04T08:19:06.572Z,2.53
2023-05-04T08:21:37.546Z,2.00
2023-05-04T08:24:08.657Z,1.52
2023-05-04T08:26:45.419Z,2.45
2023-05-04T08:29:20.807Z,2.17
2023-05-04T08:31:56.787Z,1.42
2023-05-04T08:34:29.004Z,1.50
2023-05-04T08:37:01.356Z,1.90
2023-05-04T08:39:32.733Z,1.95
2023-05-04T08:42:04.473Z,1.17
2023-05-04T08:44:37.201Z,1.95
2023-05-04T08:47:08.890Z,3.30
2023-05-04T08:49:41.031Z,1.70
2023-05-04T08:52:13.589Z,2.15
2023-05-04T08:54:45.588Z,1.67
2023-05-04T08:59:57.127Z,3.40
2023-05-04T09:02:29.011Z,8.98
2023-05-04T09:05:00.388Z,5.07
2023-05-04T09:07:30.648Z,5.40
2023-05-04T09:10:02.168Z,6.82
2023-05-04T09:12:34.723Z,4.10
2023-05-04T09:15:15.931Z,4.75
2023-05-04T09:17:57.767Z,3.85
2023-05-04T09:20:28.892Z,2.38
2023-05-04T09:23:10.305Z,2.88
2023-05-04T09:25:55.229Z,4.43
2023-05-04T09:28:37.953Z,3.33
2023-05-04T09:31:09.387Z,3.45
2023-05-04T09:33:39.759Z,4.38
2023-05-04T09:36:22.757Z,8.55
2023-05-04T09:38:54.995Z,4.63
2023-05-04T09:41:35.889Z,5.35
2023-05-04T09:44:06.748Z,4.60
2023-05-04T09:46:37.546Z,6.60
2023-05-04T09:49:08.590Z,9.35
2023-05-04T09:51:40.350Z,7.05
2023-05-04T09:54:12.864Z,7.65
2023-05-04T09:56:54.111Z,6.78
2023-05-04T09:59:29.559Z,9.95
2023-05-04T10:02:04.837Z,6.38
2023-05-04T10:04:46.248Z,5.75
2023-05-04T10:10:07.479Z,7.05
2023-05-04T10:12:38.248Z,7.10
2023-05-04T10:15:13.949Z,7.65
2023-05-04T10:18:22.093Z,21.40
2023-05-04T10:21:23.124Z,34.60
2023-05-04T10:24:28.864Z,25.83
2023-05-04T10:27:24.661Z,21.08
2023-05-04T10:29:56.478Z,13.95
2023-05-04T10:32:27.391Z,11.70
2023-05-04T10:35:14.588Z,9.43
2023-05-04T10:37:59.063Z,10.75
2023-05-04T10:40:42.028Z,8.80
2023-05-04T10:43:24.259Z,6.75
2023-05-04T10:46:02.563Z,10.30
2023-05-04T10:48:40.274Z,4.78
2023-05-04T10:51:23.020Z,4.10
2023-05-04T10:53:55.042Z,6.25
2023-05-04T10:56:28.177Z,4.55
2023-05-04T10:59:03.404Z,4.40
2023-05-04T11:01:44.117Z,3.47
2023-05-04T11:04:27.081Z,4.85
2023-05-04T11:07:05.621Z,4.28
2023-05-04T11:09:50.834Z,3.83
2023-05-04T11:12:22.993Z,4.90
2023-05-04T11:15:06.378Z,4.00
2023-05-04T11:17:41.864Z,7.43
2023-05-04T11:20:14.108Z,11.30
2023-05-04T11:22:45.866Z,19.15
2023-05-04T11:25:16.653Z,19.02
2023-05-04T11:27:47.597Z,19.42
2023-05-04T11:30:29.614Z,17.17
2023-05-04T11:33:02.818Z,11.27
2023-05-04T11:35:34.390Z,9.82
2023-05-04T11:38:05.165Z,7.60
2023-05-04T11:40:37.376Z,8.65
2023-05-04T11:43:09.506Z,5.18
2023-05-04T11:45:42.891Z,5.90
2023-05-04T11:48:14.370Z,4.68
2023-05-04T11:50:48.491Z,5.97
2023-05-04T11:53:23.769Z,5.55
2023-05-04T11:55:59.349Z,9.63
2023-05-04T11:58:32.226Z,9.48
2023-05-04T12:01:04.532Z,6.40
2023-05-04T12:03:52.943Z,6.18
2023-05-04T12:06:45.866Z,6.85
2023-05-04T12:09:16.600Z,8.38
2023-05-04T12:11:58.749Z,3.28
2023-05-04T12:14:30.537Z,5.38
2023-05-04T12:17:05.832Z,5.10
2023-05-04T12:19:36.765Z,4.35
2023-05-04T12:22:08.412Z,3.35
2023-05-04T12:24:39.085Z,3.05
2023-05-04T12:27:16.630Z,11.00
2023-05-04T12:29:50.066Z,4.20
2023-05-04T12:32:21.148Z,3.08
2023-05-04T12:34:51.886Z,4.80
2023-05-04T12:37:24.977Z,4.18
2023-05-04T12:39:57.947Z,5.72
2023-05-04T12:42:29.493Z,4.55
2023-05-04T12:45:01.003Z,5.97
2023-05-04T12:47:33.237Z,5.15
2023-05-04T12:50:10.849Z,7.47
2023-05-04T12:52:44.993Z,5.40
2023-05-04T12:55:18.152Z,7.88
2023-05-04T12:57:48.635Z,9.40
2023-05-04T13:00:19.826Z,4.82
2023-05-04T13:02:50.757Z,5.13
2023-05-04T13:05:22.527Z,5.60
2023-05-04T13:07:53.814Z,6.30
2023-05-04T13:10:24.356Z,5.13
2023-05-04T13:12:54.815Z,6.88
2023-05-04T13:15:25.359Z,5.55
2023-05-04T13:17:56.102Z,6.00
2023-05-04T13:20:28.226Z,7.07
2023-05-04T13:22:58.715Z,6.13
2023-05-04T13:25:29.169Z,7.30
2023-05-04T13:28:01.046Z,7.40
2023-05-04T13:30:32.709Z,5.85
2023-05-04T13:33:10.147Z,7.85
2023-05-04T13:35:44.258Z,8.68
2023-05-04T13:38:15.029Z,11.02
2023-05-04T13:40:47.190Z,9.35
2023-05-04T13:43:18.524Z,7.72
2023-05-04T13:45:50.230Z,8.75
2023-05-04T13:48:20.969Z,12.15
2023-05-04T13:50:51.143Z,6.53
2023-05-04T13:53:21.381Z,7.32
2023-05-04T13:55:51.593Z,8.40
2023-05-04T13:58:21.953Z,9.13
2023-05-04T14:00:52.475Z,12.57
2023-05-04T14:03:22.831Z,11.95
2023-05-04T14:05:54.788Z,14.93
2023-05-04T14:08:28.259Z,14.57
2023-05-04T14:10:58.929Z,18.83
2023-05-04T14:13:29.238Z,16.42
2023-05-04T14:16:00.270Z,15.25
2023-05-04T14:18:33.679Z,16.70
2023-05-04T14:21:03.950Z,16.63
2023-05-04T14:23:34.128Z,14.98
2023-05-04T14:26:04.392Z,14.50
2023-05-04T14:28:34.813Z,16.63
2023-05-04T14:31:10.910Z,18.45
2023-05-04T14:33:44.525Z,18.50
2023-05-04T14:36:15.619Z,16.05
2023-05-04T14:38:45.843Z,16.20
2023-05-04T14:41:17.029Z,15.52
2023-05-04T14:43:47.482Z,17.55
2023-05-04T14:46:18.316Z,16.80
2023-05-04T14:48:48.524Z,16.05
2023-05-04T14:51:25.260Z,15.55
2023-05-04T14:54:01.259Z,18.02
2023-05-04T14:56:31.778Z,19.03
2023-05-04T14:59:03.318Z,17.10
2023-05-04T15:01:33.782Z,16.02
2023-05-04T15:04:04.880Z,12.50
2023-05-04T15:06:36.054Z,11.77
2023-05-04T15:09:06.701Z,9.95
2023-05-04T15:11:37.295Z,8.63
2023-05-04T15:14:07.963Z,8.00
2023-05-04T15:16:38.320Z,10.40
2023-05-04T15:19:09.268Z,6.77
2023-05-04T15:21:43.335Z,7.50
2023-05-04T15:24:13.723Z,10.27
2023-05-04T15:26:44.603Z,9.57
2023-05-04T15:29:14.925Z,8.35
2023-05-04T15:31:45.736Z,11.87
2023-05-04T15:34:18.148Z,14.13
2023-05-04T15:36:49.034Z,13.27
2023-05-04T15:39:19.830Z,12.37
2023-05-04T15:41:50.746Z,13.23
2023-05-04T15:44:23.161Z,17.13
2023-05-04T15:46:53.568Z,14.83
2023-05-04T15:49:23.878Z,16.07
2023-05-04T15:51:55.817Z,16.47
2023-05-04T15:54:27.799Z,15.17
2023-05-04T15:56:58.107Z,13.97
2023-05-04T15:59:28.724Z,12.40
2023-05-04T16:01:59.053Z,12.67
2023-05-04T16:04:30.010Z,11.20
2023-05-04T16:07:00.360Z,9.57
2023-05-04T16:09:32.317Z,11.80
2023-05-04T16:12:04.445Z,11.87
2023-05-04T16:14:35.493Z,12.07
2023-05-04T16:17:06.647Z,10.50
2023-05-04T16:19:37.610Z,12.83
2023-05-04T16:22:08.241Z,14.73
2023-05-04T16:24:38.567Z,10.70
2023-05-04T16:27:09.712Z,11.00
2023-05-04T16:29:39.903Z,10.43
2023-05-04T16:32:10.214Z,11.40
2023-05-04T16:34:40.531Z,10.13
2023-05-04T16:37:11.367Z,11.23
2023-05-04T16:39:41.840Z,10.93
2023-05-04T16:42:12.088Z,9.07
2023-05-04T16:44:42.425Z,10.60
2023-05-04T16:47:12.646Z,10.33
2023-05-04T16:49:44.155Z,11.07
2023-05-04T16:52:14.924Z,8.53
2023-05-04T16:54:45.487Z,8.60
2023-05-04T16:57:15.823Z,8.23
2023-05-04T16:59:46.125Z,5.50
2023-05-04T17:02:16.442Z,8.63
2023-05-04T17:04:46.705Z,7.00
2023-05-04T17:07:17.189Z,9.70
2023-05-04T17:10:07.473Z,7.83
2023-05-04T17:12:38.292Z,6.50
2023-05-04T17:15:10.247Z,6.30
2023-05-04T20:49:37.293Z,3.77
2023-05-04T20:52:24.471Z,4.90
2023-05-04T20:59:11.122Z,5.27
2023-05-04T21:02:00.554Z,9.10
2023-05-04T21:04:30.874Z,4.20
2023-05-04T21:07:02.521Z,6.37
2023-05-04T21:09:33.289Z,5.07
2023-05-04T21:12:04.924Z,5.57
2023-05-04T21:14:35.798Z,5.63
2023-05-04T21:17:06.471Z,5.43
2023-05-04T21:19:37.146Z,7.97
2023-05-04T21:22:07.968Z,10.70
2023-05-04T21:24:39.518Z,10.80
2023-05-04T21:27:10.882Z,6.83
2023-05-04T21:29:42.497Z,11.57
2023-05-04T21:32:14.728Z,7.07
2023-05-04T21:34:45.308Z,6.03
2023-05-04T21:37:16.901Z,9.83
2023-05-04T21:39:49.195Z,7.40
2023-05-04T21:42:19.965Z,7.00
2023-05-04T21:44:55.704Z,4.00
2023-05-04T21:47:28.311Z,4.40
2023-05-04T21:49:59.982Z,4.67
2023-05-04T21:52:30.832Z,5.40
2023-05-04T21:55:02.753Z,9.03
2023-05-04T21:57:35.397Z,7.82
2023-05-04T22:00:13.922Z,7.93
2023-05-04T22:02:45.930Z,7.13
2023-05-04T22:05:17.134Z,4.50
2023-05-04T22:07:57.146Z,6.70
2023-05-04T22:10:28.842Z,7.45
2023-05-04T22:12:59.646Z,4.55
2023-05-04T22:21:11.263Z,6.03
2023-05-04T22:23:43.030Z,6.20
2023-05-04T22:26:13.908Z,7.05
2023-05-04T22:28:44.803Z,5.22
2023-05-04T22:31:15.485Z,8.40
2023-05-04T22:33:46.271Z,4.75
2023-05-04T22:36:16.921Z,4.32
2023-05-04T22:38:48.506Z,5.75
2023-05-04T22:41:19.065Z,3.97
2023-05-04T22:43:49.921Z,2.92
2023-05-04T22:46:22.514Z,3.17
2023-05-04T22:48:53.743Z,3.55
2023-05-04T22:51:25.216Z,3.03
2023-05-04T22:53:57.177Z,2.28
2023-05-04T22:56:28.078Z,3.47
2023-05-04T22:59:00.555Z,2.70
2023-05-04T23:01:33.184Z,2.47
2023-05-04T23:04:04.064Z,2.33
2023-05-04T23:06:35.556Z,3.03
2023-05-04T23:09:07.800Z,2.83
2023-05-04T23:11:38.663Z,2.55
2023-05-04T23:14:10.506Z,3.67
2023-05-04T23:16:41.746Z,2.70
2023-05-04T23:19:12.784Z,2.13
2023-05-04T23:21:44.576Z,1.80
2023-05-04T23:24:15.203Z,3.53
2023-05-04T23:26:46.043Z,4.28
2023-05-04T23:29:16.668Z,3.17
2023-05-04T23:31:49.618Z,2.53
2023-05-04T23:34:20.477Z,2.30
2023-05-04T23:36:52.714Z,2.90
2023-05-04T23:39:24.174Z,3.50
2023-05-04T23:41:55.588Z,2.60
2023-05-04T23:44:27.285Z,3.55
2023-05-04T23:46:59.557Z,1.90
2023-05-04T23:49:30.159Z,2.67
2023-05-04T23:52:00.878Z,2.05
2023-05-04T23:54:31.638Z,4.05
2023-05-04T23:57:02.378Z,2.67
2023-05-04T23:59:34.097Z,2.55
